Time;durP1;ratioP1;P1;durP2;ratioP2;P2;SDS_P1;SDS_P2;PMS_P1;PMS_P2;Temp;Humidity;BMP_temperature;BMP_pressure;BME280_temperature;BME280_humidity;BME280_pressure;Samples;Min_cycle;Max_cycle;Signal;HPM_P1;HPM_P2
2022/07/26 00:01:59;;;;;;;2.55;0.75;;;25.50;67.50;;;;;;5056159;28;20025;-87
2022/07/26 00:04:26;;;;;;;1.70;0.70;;;25.50;68.20;;;;;;5056138;28;20063;-86
2022/07/26 00:06:51;;;;;;;1.52;0.73;;;25.50;67.60;;;;;;5058528;28;20039;-87
2022/07/26 00:09:17;;;;;;;1.10;0.60;;;25.60;67.60;;;;;;5077823;28;20032;-87
2022/07/26 00:11:43;;;;;;;1.13;0.70;;;25.60;67.90;;;;;;5059593;28;20488;-87
2022/07/26 00:14:08;;;;;;;5.53;0.80;;;25.60;68.20;;;;;;5077787;28;20032;-87
2022/07/26 00:16:35;;;;;;;2.22;1.00;;;25.50;69.40;;;;;;5059473;28;20039;-87
2022/07/26 00:19:01;;;;;;;2.10;0.70;;;25.50;69.10;;;;;;5077941;28;20025;-87
2022/07/26 00:21:29;;;;;;;0.70;0.50;;;25.40;69.30;;;;;;5060018;28;20111;-88
2022/07/26 00:23:55;;;;;;;2.15;0.57;;;25.40;69.70;;;;;;5077813;28;20469;-87
2022/07/26 00:26:20;;;;;;;1.02;0.60;;;25.40;70.10;;;;;;5059531;28;20029;-87
2022/07/26 00:28:46;;;;;;;2.05;0.50;;;25.40;70.30;;;;;;5059414;28;20094;-87
2022/07/26 00:31:11;;;;;;;0.40;0.40;;;25.30;70.40;;;;;;5059904;28;20021;-87
2022/07/26 00:33:39;;;;;;;0.75;0.65;;;25.30;70.70;;;;;;5076890;28;20095;-87
2022/07/26 00:36:05;;;;;;;0.80;0.60;;;25.30;70.70;;;;;;5059599;28;20064;-87
2022/07/26 00:38:30;;;;;;;0.82;0.43;;;25.30;71.00;;;;;;5058897;28;20037;-87
2022/07/26 00:40:56;;;;;;;0.85;0.40;;;25.20;71.10;;;;;;5077363;28;20035;-87
2022/07/26 00:43:21;;;;;;;1.27;0.57;;;25.20;71.20;;;;;;5059298;28;20446;-87
2022/07/26 00:45:49;;;;;;;1.45;0.50;;;25.20;71.30;;;;;;5058911;28;20028;-87
2022/07/26 00:48:15;;;;;;;4.30;0.50;;;25.10;71.50;;;;;;5059441;28;20033;-87
2022/07/26 00:50:40;;;;;;;0.60;0.50;;;25.10;71.80;;;;;;5059120;28;20059;-87
2022/07/26 00:53:06;;;;;;;2.15;0.68;;;25.10;71.90;;;;;;5076941;28;20444;-86
2022/07/26 00:55:32;;;;;;;1.27;0.40;;;25.10;72.10;;;;;;5076623;28;20455;-87
2022/07/26 00:58:00;;;;;;;2.38;0.73;;;25.10;72.30;;;;;;5059384;28;20028;-87
2022/07/26 01:00:26;;;;;;;2.10;0.60;;;25.00;72.60;;;;;;5059535;28;20028;-86
2022/07/26 01:02:52;;;;;;;1.95;0.55;;;25.00;72.90;;;;;;5058589;28;20056;-86
2022/07/26 01:05:18;;;;;;;0.75;0.65;;;25.00;73.20;;;;;;5059499;28;20021;-86
2022/07/26 01:07:45;;;;;;;0.52;0.38;;;25.00;73.40;;;;;;5058538;28;20040;-86
2022/07/26 01:10:11;;;;;;;0.60;0.50;;;25.00;73.70;;;;;;5059110;28;20055;-86
2022/07/26 01:12:38;;;;;;;1.58;0.60;;;24.90;74.10;;;;;;5058433;28;20473;-87
2022/07/26 01:15:05;;;;;;;0.65;0.50;;;24.90;74.50;;;;;;5059297;28;20031;-87
2022/07/26 01:17:31;;;;;;;1.73;0.80;;;24.90;74.80;;;;;;5057000;28;20074;-88
2022/07/26 01:19:56;;;;;;;2.70;0.60;;;24.70;75.20;;;;;;5059153;28;20032;-87
2022/07/26 01:22:22;;;;;;;1.02;0.52;;;24.70;75.40;;;;;;5058582;28;20141;-87
2022/07/26 01:24:47;;;;;;;1.30;0.50;;;24.70;76.00;;;;;;5076045;28;20029;-87
2022/07/26 01:27:13;;;;;;;1.48;0.50;;;24.70;77.00;;;;;;5055202;28;20502;-87
2022/07/26 01:29:39;;;;;;;0.80;0.40;;;24.70;76.90;;;;;;5054733;28;20033;-87
2022/07/26 01:32:05;;;;;;;0.60;0.43;;;24.60;77.70;;;;;;5055236;28;20421;-87
2022/07/26 01:34:31;;;;;;;1.55;0.70;;;24.50;78.20;;;;;;5056080;28;20054;-87
2022/07/26 01:36:57;;;;;;;2.38;0.70;;;24.50;78.80;;;;;;5046920;28;20101;-86
2022/07/26 01:39:23;;;;;;;2.80;0.63;;;24.50;79.30;;;;;;5055232;28;20068;-87
2022/07/26 01:41:48;;;;;;;1.10;0.50;;;24.40;80.00;;;;;;5054485;28;20116;-86
2022/07/26 01:44:14;;;;;;;2.70;0.68;;;24.30;80.60;;;;;;5055041;28;20429;-86
2022/07/26 01:46:39;;;;;;;4.05;0.68;;;24.20;81.10;;;;;;5054443;28;20029;-87
2022/07/26 01:49:07;;;;;;;2.17;0.60;;;24.30;81.60;;;;;;5054991;28;20021;-87
2022/07/26 01:51:33;;;;;;;0.52;0.52;;;24.20;81.60;;;;;;5054423;28;20044;-88
2022/07/26 01:53:59;;;;;;;2.35;1.02;;;24.10;82.30;;;;;;5054659;28;20029;-87
2022/07/26 01:56:25;;;;;;;2.22;0.77;;;24.10;82.80;;;;;;5054525;28;20028;-87
2022/07/26 01:58:50;;;;;;;0.60;0.52;;;24.00;83.00;;;;;;5054444;28;20024;-87
2022/07/26 02:01:16;;;;;;;2.08;0.57;;;24.00;83.50;;;;;;5054563;28;20021;-87
2022/07/26 02:03:41;;;;;;;2.58;0.70;;;23.90;83.40;;;;;;5050564;28;20473;-87
2022/07/26 02:06:07;;;;;;;1.08;0.70;;;23.90;83.40;;;;;;5050835;28;20058;-87
2022/07/26 02:08:33;;;;;;;1.05;0.60;;;23.80;83.60;;;;;;5034949;28;20037;-87
2022/07/26 02:11:01;;;;;;;2.08;0.52;;;23.80;84.40;;;;;;5044684;28;20029;-87
2022/07/26 02:13:35;;;;;;;1.48;0.63;;;23.80;83.80;;;;;;5051426;28;20035;-87
2022/07/26 02:16:02;;;;;;;1.02;0.63;;;23.80;83.90;;;;;;5063513;28;20541;-87
2022/07/26 02:18:29;;;;;;;1.02;0.60;;;23.80;83.70;;;;;;5063561;28;20032;-87
2022/07/26 02:20:55;;;;;;;1.02;0.40;;;23.80;83.80;;;;;;5070010;28;20033;-87
2022/07/26 02:23:21;;;;;;;0.75;0.68;;;23.80;83.80;;;;;;5056142;28;20049;-87
2022/07/26 02:25:47;;;;;;;2.25;0.70;;;23.80;83.80;;;;;;5053634;28;20520;-87
2022/07/26 02:28:14;;;;;;;1.55;0.52;;;23.80;83.40;;;;;;5069707;28;20044;-87
2022/07/26 02:30:41;;;;;;;1.73;0.63;;;23.70;83.50;;;;;;5074113;28;20027;-85
2022/07/26 02:33:06;;;;;;;3.83;0.52;;;23.70;83.80;;;;;;5040239;28;20039;-85
2022/07/26 02:35:32;;;;;;;1.40;0.60;;;23.70;84.00;;;;;;5034305;28;20410;-85
2022/07/26 02:38:07;;;;;;;2.00;0.52;;;23.70;83.80;;;;;;5054629;28;20056;-84
2022/07/26 02:40:34;;;;;;;3.60;0.70;;;23.70;83.80;;;;;;5055120;28;20029;-86
2022/07/26 02:42:59;;;;;;;1.25;0.70;;;23.70;84.00;;;;;;5053352;28;20116;-86
2022/07/26 02:45:25;;;;;;;1.20;0.70;;;23.60;84.20;;;;;;5036914;28;20053;-86
2022/07/26 02:47:53;;;;;;;0.65;0.60;;;23.70;84.40;;;;;;5037006;28;20123;-86
2022/07/26 02:50:20;;;;;;;1.23;0.60;;;23.60;84.50;;;;;;5037311;28;20031;-86
2022/07/26 02:52:47;;;;;;;1.20;0.50;;;23.60;84.70;;;;;;5054588;28;20075;-87
2022/07/26 02:55:14;;;;;;;1.90;0.63;;;23.50;84.90;;;;;;5037318;28;20033;-87
2022/07/26 02:57:39;;;;;;;1.00;0.70;;;23.50;85.30;;;;;;5054054;28;20064;-88
2022/07/26 03:00:06;;;;;;;1.10;0.80;;;23.40;85.50;;;;;;5054862;28;20493;-88
2022/07/26 03:02:32;;;;;;;1.83;0.63;;;23.40;85.70;;;;;;5037010;28;20084;-87
2022/07/26 03:04:58;;;;;;;0.95;0.60;;;23.40;85.70;;;;;;5054108;28;20021;-87
2022/07/26 03:07:23;;;;;;;4.90;0.80;;;23.40;86.00;;;;;;5036864;28;20033;-87
2022/07/26 03:09:49;;;;;;;0.68;0.50;;;23.40;86.20;;;;;;5036616;28;20028;-88
2022/07/26 03:12:14;;;;;;;0.95;0.60;;;23.40;86.40;;;;;;5054402;28;20029;-87
2022/07/26 03:14:40;;;;;;;1.10;0.80;;;23.30;86.40;;;;;;5036651;28;20033;-88
2022/07/26 03:17:05;;;;;;;1.02;0.50;;;23.30;86.80;;;;;;5054384;28;20116;-87
2022/07/26 03:19:31;;;;;;;1.58;0.80;;;23.30;87.00;;;;;;5054604;28;20367;-87
2022/07/26 03:21:56;;;;;;;0.60;0.57;;;23.30;87.10;;;;;;5035955;28;20028;-87
2022/07/26 03:24:22;;;;;;;1.73;0.80;;;23.30;87.10;;;;;;5036266;28;20059;-87
2022/07/26 03:26:48;;;;;;;2.92;0.73;;;23.30;87.40;;;;;;5056447;28;20064;-88
2022/07/26 03:29:13;;;;;;;1.67;0.68;;;23.20;87.50;;;;;;5056752;28;20028;-87
2022/07/26 03:31:39;;;;;;;2.40;0.70;;;23.10;87.90;;;;;;5056484;28;20515;-88
2022/07/26 03:34:04;;;;;;;2.45;0.70;;;23.00;88.40;;;;;;5074382;28;20024;-87
2022/07/26 03:36:30;;;;;;;3.10;0.75;;;22.90;88.70;;;;;;5056726;28;20420;-87
2022/07/26 03:38:56;;;;;;;3.15;0.75;;;22.90;89.00;;;;;;5055848;28;20068;-87
2022/07/26 03:41:21;;;;;;;1.00;0.82;;;22.90;89.40;;;;;;5055593;28;20070;-87
2022/07/26 03:43:47;;;;;;;1.50;1.08;;;22.80;89.60;;;;;;5056062;28;20031;-87
2022/07/26 03:46:12;;;;;;;1.70;0.60;;;22.70;89.80;;;;;;5056442;28;20385;-87
2022/07/26 03:48:38;;;;;;;3.78;0.88;;;22.70;90.10;;;;;;5056559;28;20028;-87
2022/07/26 03:51:04;;;;;;;1.30;0.65;;;22.70;90.20;;;;;;5055725;28;20021;-87
2022/07/26 03:53:29;;;;;;;1.70;0.65;;;22.60;90.40;;;;;;5073946;28;20064;-87
2022/07/26 03:58:39;;;;;;;1.30;0.60;;;22.60;90.60;;;;;;5074053;28;20032;-87
2022/07/26 04:01:05;;;;;;;2.28;0.68;;;22.60;90.70;;;;;;5055409;28;20028;-87
2022/07/26 04:03:30;;;;;;;2.47;0.80;;;22.60;90.80;;;;;;5056185;28;20025;-86
2022/07/26 04:05:56;;;;;;;1.60;0.70;;;22.50;90.90;;;;;;5072779;28;20029;-87
2022/07/26 04:08:22;;;;;;;1.73;1.25;;;22.50;91.00;;;;;;5055911;28;20531;-87
2022/07/26 04:10:50;;;;;;;1.45;0.73;;;22.50;91.10;;;;;;5055539;28;20394;-87
2022/07/26 04:13:16;;;;;;;1.35;0.80;;;22.50;91.20;;;;;;5074059;28;20027;-87
2022/07/26 04:15:42;;;;;;;0.82;0.75;;;22.40;91.40;;;;;;5056226;28;20405;-87
2022/07/26 04:18:08;;;;;;;4.13;0.80;;;22.50;91.50;;;;;;5055819;28;20025;-86
2022/07/26 04:20:33;;;;;;;2.63;0.85;;;22.40;91.60;;;;;;5073636;28;20028;-87
2022/07/26 04:22:59;;;;;;;1.38;0.70;;;22.30;91.70;;;;;;5055427;28;20117;-87
2022/07/26 04:25:25;;;;;;;1.88;0.85;;;22.30;91.80;;;;;;5055415;28;20024;-86
2022/07/26 04:27:50;;;;;;;0.88;0.80;;;22.30;91.90;;;;;;5073016;28;20045;-87
2022/07/26 04:30:16;;;;;;;2.20;1.08;;;22.20;92.00;;;;;;5055740;28;20032;-87
2022/07/26 04:32:43;;;;;;;2.15;0.90;;;22.10;92.10;;;;;;5073451;28;20025;-87
2022/07/26 04:35:09;;;;;;;5.30;1.10;;;22.20;92.30;;;;;;5073112;28;20020;-87
2022/07/26 04:37:41;;;;;;;3.95;1.00;;;22.10;92.30;;;;;;5055845;28;20040;-86
2022/07/26 04:40:09;;;;;;;2.63;0.80;;;22.00;92.50;;;;;;5072663;28;20044;-86
2022/07/26 04:42:35;;;;;;;2.67;0.82;;;21.90;92.60;;;;;;5055784;28;20028;-86
2022/07/26 04:45:05;;;;;;;1.52;0.80;;;21.90;93.00;;;;;;5055637;28;20031;-86
2022/07/26 04:47:31;;;;;;;2.22;0.80;;;21.90;92.70;;;;;;5056246;28;20039;-86
2022/07/26 04:49:57;;;;;;;2.35;0.90;;;21.90;92.80;;;;;;5073096;28;20025;-86
2022/07/26 04:52:22;;;;;;;7.05;0.90;;;21.90;92.90;;;;;;5057300;28;20024;-86
2022/07/26 04:54:48;;;;;;;2.13;1.00;;;21.90;92.80;;;;;;5058810;28;20031;-87
2022/07/26 04:57:13;;;;;;;3.97;0.95;;;21.90;92.80;;;;;;5059399;28;20028;-86
2022/07/26 04:59:39;;;;;;;1.85;0.77;;;21.90;92.80;;;;;;5047926;28;20139;-86
2022/07/26 05:02:05;;;;;;;1.75;1.00;;;21.90;92.80;;;;;;5038843;28;20606;-86
2022/07/26 05:04:30;;;;;;;3.15;1.30;;;21.90;92.70;;;;;;5039137;28;20119;-86
2022/07/26 05:07:01;;;;;;;0.90;0.68;;;21.90;92.70;;;;;;5040700;28;20045;-87
2022/07/26 05:09:27;;;;;;;1.97;1.00;;;21.90;92.70;;;;;;5039291;28;20028;-86
2022/07/26 05:11:53;;;;;;;2.67;1.10;;;21.90;92.60;;;;;;5046944;28;20450;-87
2022/07/26 05:14:19;;;;;;;1.55;0.90;;;21.90;92.70;;;;;;5059276;28;20147;-87
2022/07/26 05:16:45;;;;;;;3.67;1.10;;;21.80;92.80;;;;;;5076843;28;20385;-88
2022/07/26 05:19:12;;;;;;;2.55;1.10;;;21.80;92.90;;;;;;5058600;28;20480;-87
2022/07/26 05:21:37;;;;;;;1.67;1.42;;;21.80;92.90;;;;;;5076848;28;20509;-87
2022/07/26 05:24:03;;;;;;;3.53;1.17;;;21.80;93.00;;;;;;5058447;28;20052;-87
2022/07/26 05:26:29;;;;;;;2.28;0.95;;;21.80;92.90;;;;;;5076130;28;20070;-86
2022/07/26 05:28:54;;;;;;;1.48;0.82;;;21.80;93.00;;;;;;5058358;28;20025;-87
2022/07/26 05:31:20;;;;;;;1.67;1.08;;;21.70;93.00;;;;;;5059282;28;20020;-86
2022/07/26 05:33:46;;;;;;;3.08;1.13;;;21.70;93.00;;;;;;5076364;28;20021;-87
2022/07/26 05:36:11;;;;;;;2.45;1.20;;;21.70;93.00;;;;;;5058622;28;20454;-87
2022/07/26 05:38:37;;;;;;;5.22;1.23;;;21.60;93.00;;;;;;5076235;28;20048;-87
2022/07/26 05:41:03;;;;;;;2.53;1.10;;;21.60;92.90;;;;;;5075976;28;20032;-86
2022/07/26 05:43:28;;;;;;;7.93;1.30;;;21.60;92.80;;;;;;5058733;28;20024;-86
2022/07/26 05:45:56;;;;;;;2.58;1.10;;;21.60;92.60;;;;;;5075932;28;20512;-87
2022/07/26 05:48:22;;;;;;;2.80;0.90;;;21.60;92.40;;;;;;5075914;28;20025;-87
2022/07/26 05:50:47;;;;;;;2.15;0.98;;;21.60;92.40;;;;;;5057900;28;20039;-88
2022/07/26 05:53:13;;;;;;;2.08;0.93;;;21.70;92.30;;;;;;5076057;28;20021;-86
2022/07/26 05:55:39;;;;;;;3.10;0.90;;;21.60;92.20;;;;;;5058482;28;20481;-86
2022/07/26 05:58:04;;;;;;;2.92;1.20;;;21.60;92.20;;;;;;5075285;28;20065;-87
2022/07/26 06:00:30;;;;;;;4.00;0.90;;;21.60;92.10;;;;;;5058145;28;20071;-86
2022/07/26 06:02:55;;;;;;;3.53;0.98;;;21.60;92.20;;;;;;5072797;28;20035;-87
2022/07/26 06:05:21;;;;;;;6.75;1.23;;;21.60;92.10;;;;;;5057067;28;20025;-86
2022/07/26 06:07:47;;;;;;;1.40;1.00;;;21.60;92.10;;;;;;5057945;28;20473;-86
2022/07/26 06:10:12;;;;;;;4.30;1.10;;;21.60;92.10;;;;;;5075658;28;20055;-87
2022/07/26 06:12:38;;;;;;;4.72;1.10;;;21.60;92.00;;;;;;5075609;28;20059;-86
2022/07/26 06:15:04;;;;;;;6.78;1.00;;;21.50;92.00;;;;;;5063590;28;20468;-87
2022/07/26 06:17:30;;;;;;;3.60;1.63;;;21.50;91.90;;;;;;5057060;28;20124;-86
2022/07/26 06:19:57;;;;;;;5.15;1.90;;;21.60;91.80;;;;;;5058198;28;20060;-87
2022/07/26 06:22:23;;;;;;;3.53;1.40;;;21.60;91.80;;;;;;5057556;28;20025;-87
2022/07/26 06:24:48;;;;;;;3.20;1.30;;;21.60;91.70;;;;;;5074817;28;20021;-88
2022/07/26 06:27:14;;;;;;;4.43;1.33;;;21.60;91.60;;;;;;5057510;28;20040;-87
2022/07/26 06:29:39;;;;;;;5.20;1.10;;;21.60;91.60;;;;;;5057569;28;20028;-86
2022/07/26 06:32:06;;;;;;;3.03;0.75;;;21.60;91.60;;;;;;5074396;28;20051;-87
2022/07/26 06:34:31;;;;;;;2.45;0.90;;;21.50;91.50;;;;;;5057553;28;20020;-87
2022/07/26 06:36:57;;;;;;;3.58;0.80;;;21.60;91.30;;;;;;5056727;28;20618;-86
2022/07/26 06:39:23;;;;;;;3.35;1.23;;;21.60;91.30;;;;;;5057137;28;20064;-86
2022/07/26 06:41:49;;;;;;;0.98;0.68;;;21.50;91.30;;;;;;5056997;28;20054;-89
2022/07/26 06:44:15;;;;;;;6.28;1.08;;;21.50;91.10;;;;;;5057079;28;20046;-87
2022/07/26 06:46:41;;;;;;;2.65;1.05;;;21.40;91.10;;;;;;5057118;28;20476;-87
2022/07/26 06:49:06;;;;;;;4.22;1.17;;;21.50;91.00;;;;;;5074477;28;20466;-87
2022/07/26 06:51:32;;;;;;;8.57;1.08;;;21.50;90.30;;;;;;5074561;28;20059;-87
2022/07/26 06:53:57;;;;;;;1.30;0.70;;;21.50;90.00;;;;;;5074268;28;20077;-87
2022/07/26 06:56:24;;;;;;;2.83;0.70;;;21.60;88.80;;;;;;5057186;28;20415;-87
2022/07/26 06:58:49;;;;;;;1.38;0.70;;;21.60;88.50;;;;;;5056648;28;20052;-87
2022/07/26 07:01:15;;;;;;;2.90;0.75;;;21.70;88.70;;;;;;5074277;28;20027;-87
2022/07/26 07:03:40;;;;;;;4.07;0.80;;;21.70;88.90;;;;;;5056918;28;20077;-87
2022/07/26 07:06:06;;;;;;;2.92;0.95;;;21.70;88.50;;;;;;5073931;28;20028;-88
2022/07/26 07:08:32;;;;;;;2.25;0.82;;;21.70;88.70;;;;;;5056234;28;20028;-88
2022/07/26 07:10:58;;;;;;;2.58;0.77;;;21.70;88.10;;;;;;5073810;28;20031;-88
2022/07/26 07:13:23;;;;;;;2.63;0.80;;;21.70;88.10;;;;;;5056526;28;20032;-87
2022/07/26 07:15:49;;;;;;;1.77;0.80;;;21.70;88.00;;;;;;5056909;28;20025;-88
2022/07/26 07:18:15;;;;;;;1.23;0.80;;;21.80;87.00;;;;;;5056004;28;20056;-86
2022/07/26 07:20:40;;;;;;;2.60;0.75;;;21.80;87.10;;;;;;5074169;28;20024;-85
2022/07/26 07:23:07;;;;;;;3.38;0.98;;;21.80;86.90;;;;;;5055978;28;20477;-88
2022/07/26 07:25:32;;;;;;;5.22;1.13;;;21.70;86.80;;;;;;5056339;28;20028;-87
2022/07/26 07:27:58;;;;;;;2.35;0.60;;;21.80;86.80;;;;;;5055479;28;20067;-87
2022/07/26 07:30:25;;;;;;;1.10;0.60;;;21.80;86.10;;;;;;5056284;28;20032;-87
2022/07/26 07:32:51;;;;;;;3.58;0.70;;;21.70;85.90;;;;;;5073963;28;20073;-87
2022/07/26 07:35:16;;;;;;;0.77;0.50;;;21.70;85.60;;;;;;5055809;28;20220;-87
2022/07/26 07:37:42;;;;;;;3.15;0.63;;;21.70;85.50;;;;;;5074267;28;20112;-87
2022/07/26 07:40:08;;;;;;;3.33;0.55;;;21.90;85.30;;;;;;5071980;28;20044;-86
2022/07/26 07:42:35;;;;;;;2.55;0.82;;;21.90;85.20;;;;;;5064592;28;20020;-88
2022/07/26 07:45:01;;;;;;;1.23;0.60;;;21.90;84.90;;;;;;5072857;28;20082;-87
2022/07/26 07:47:26;;;;;;;3.53;0.77;;;22.00;85.20;;;;;;5061870;28;20036;-87
2022/07/26 07:49:52;;;;;;;4.47;0.68;;;22.00;84.90;;;;;;5070932;28;20462;-88
2022/07/26 07:52:18;;;;;;;1.30;0.60;;;22.00;84.80;;;;;;5072364;28;20485;-87
2022/07/26 07:54:44;;;;;;;1.48;0.57;;;21.90;84.90;;;;;;5073067;28;20025;-88
2022/07/26 07:57:09;;;;;;;1.70;0.70;;;22.00;84.60;;;;;;5073491;28;20039;-88
2022/07/26 07:59:35;;;;;;;4.85;1.05;;;22.00;84.70;;;;;;5074140;28;20033;-87
2022/07/26 08:02:00;;;;;;;1.73;0.63;;;22.00;84.70;;;;;;5073284;28;20112;-88
2022/07/26 08:04:26;;;;;;;3.17;0.60;;;22.10;84.50;;;;;;5072860;28;20379;-88
2022/07/26 08:06:52;;;;;;;4.57;0.60;;;22.10;84.50;;;;;;5072969;28;20473;-87
2022/07/26 08:09:18;;;;;;;3.10;0.73;;;22.20;83.90;;;;;;5073381;28;20033;-87
2022/07/26 08:11:44;;;;;;;3.15;1.00;;;22.10;82.80;;;;;;5073607;28;20028;-87
2022/07/26 08:14:10;;;;;;;5.18;0.70;;;22.10;82.80;;;;;;5072573;28;20046;-87
2022/07/26 08:16:35;;;;;;;3.00;0.50;;;22.20;83.10;;;;;;5074186;28;20099;-87
2022/07/26 08:19:01;;;;;;;2.90;0.60;;;22.20;82.50;;;;;;5073375;28;20040;-87
2022/07/26 08:21:27;;;;;;;3.38;0.52;;;22.10;81.90;;;;;;5074076;28;20043;-88
2022/07/26 08:23:52;;;;;;;2.30;0.75;;;22.10;82.80;;;;;;5072748;28;20036;-88
2022/07/26 08:26:21;;;;;;;1.42;0.55;;;22.20;83.20;;;;;;5072336;28;20078;-88
2022/07/26 08:28:47;;;;;;;2.78;0.45;;;22.30;82.10;;;;;;5075999;28;20049;-88
2022/07/26 08:31:12;;;;;;;1.05;0.55;;;22.30;80.70;;;;;;5077207;28;20100;-89
2022/07/26 08:33:38;;;;;;;1.55;0.50;;;22.30;80.40;;;;;;5076839;28;20078;-88
2022/07/26 08:36:04;;;;;;;2.80;0.50;;;22.40;80.40;;;;;;5076460;28;20032;-87
2022/07/26 08:38:29;;;;;;;2.40;0.55;;;22.50;80.10;;;;;;5077507;28;20041;-88
2022/07/26 08:40:55;;;;;;;1.13;0.57;;;22.50;79.20;;;;;;5076491;28;20068;-87
2022/07/26 08:43:21;;;;;;;2.28;0.43;;;22.60;78.70;;;;;;5075892;28;20458;-87
2022/07/26 08:45:48;;;;;;;1.40;0.50;;;22.60;77.70;;;;;;5076474;28;20107;-87
2022/07/26 08:48:13;;;;;;;2.72;0.50;;;22.60;78.30;;;;;;5077040;28;20036;-87
2022/07/26 08:50:39;;;;;;;0.65;0.40;;;22.70;77.90;;;;;;5076006;28;20025;-88
2022/07/26 08:53:08;;;;;;;1.35;0.40;;;22.80;77.50;;;;;;5076612;28;20103;-88
2022/07/26 08:55:34;;;;;;;0.80;0.40;;;23.00;77.40;;;;;;5076560;28;20067;-88
2022/07/26 08:58:02;;;;;;;3.92;1.55;;;23.20;76.20;;;;;;5076387;28;20024;-88
2022/07/26 09:00:44;;;;;;;;;;;;;;;;;;;;;
2022/07/26 09:03:25;;;;;;;4.30;0.60;;;23.30;75.00;;;;;;5076024;28;20031;-88
2022/07/26 09:05:52;;;;;;;2.15;0.68;;;23.40;74.40;;;;;;5075956;28;20071;-88
2022/07/26 09:08:27;;;;;;;2.38;0.80;;;23.50;74.30;;;;;;5075329;28;20733;-88
2022/07/26 09:10:54;;;;;;;1.27;0.60;;;23.50;74.30;;;;;;5075717;28;20112;-88
2022/07/26 09:13:21;;;;;;;0.90;0.43;;;23.70;74.10;;;;;;5076060;28;20022;-88
2022/07/26 09:15:48;;;;;;;1.08;0.40;;;23.90;73.30;;;;;;5076127;28;20070;-88
2022/07/26 09:18:27;;;;;;;1.45;0.70;;;23.90;73.00;;;;;;5075082;28;20033;-88
2022/07/26 09:20:53;;;;;;;0.57;0.30;;;24.00;72.10;;;;;;5075577;28;20035;-88
2022/07/26 09:23:19;;;;;;;2.67;0.60;;;24.10;71.90;;;;;;5057663;28;20130;-89
2022/07/26 09:25:45;;;;;;;4.57;0.50;;;24.10;71.50;;;;;;5058655;28;20107;-88
2022/07/26 09:28:28;;;;;;;1.98;0.50;;;24.10;71.20;;;;;;5058354;28;20048;-88
2022/07/26 09:30:59;;;;;;;1.90;0.32;;;24.10;70.50;;;;;;5058258;28;20021;-88
2022/07/26 09:33:25;;;;;;;1.20;0.45;;;24.10;70.00;;;;;;5055403;28;20024;-91
2022/07/26 09:36:02;;;;;;;2.33;0.70;;;24.20;70.00;;;;;;5043239;28;20086;-89
2022/07/26 09:39:01;;;;;;;0.77;0.45;;;24.30;69.40;;;;;;5057212;28;20060;-90
2022/07/26 09:41:32;;;;;;;1.27;0.50;;;24.40;69.20;;;;;;5026804;28;20045;-89
2022/07/26 09:44:03;;;;;;;0.73;0.30;;;24.40;69.70;;;;;;5038557;28;20057;-89
2022/07/26 09:46:30;;;;;;;1.85;0.30;;;24.50;69.20;;;;;;5038684;28;20154;-88
2022/07/26 09:48:59;;;;;;;0.82;0.30;;;24.40;69.10;;;;;;5038034;28;20029;-90
2022/07/26 09:51:39;;;;;;;1.55;0.40;;;24.50;69.50;;;;;;5063464;28;20028;-87
2022/07/26 09:54:05;;;;;;;0.40;0.20;;;24.30;67.90;;;;;;5057368;28;20024;-88
2022/07/26 09:56:46;;;;;;;0.40;0.40;;;24.30;68.70;;;;;;5057732;28;20032;-88
2022/07/26 09:59:20;;;;;;;3.83;0.30;;;24.30;68.70;;;;;;5057648;28;20081;-87
2022/07/26 10:01:47;;;;;;;0.95;0.30;;;24.30;68.00;;;;;;5058226;28;20063;-88
2022/07/26 10:04:14;;;;;;;0.85;0.57;;;24.30;68.20;;;;;;5057326;28;20085;-87
2022/07/26 10:06:40;;;;;;;3.05;0.40;;;24.40;67.50;;;;;;5057832;28;20082;-88
2022/07/26 10:09:27;;;;;;;1.45;0.40;;;24.50;67.40;;;;;;5074858;28;20167;-87
2022/07/26 10:12:01;;;;;;;0.20;0.20;;;24.50;67.20;;;;;;5062020;28;20047;-88
2022/07/26 10:14:45;;;;;;;0.40;0.20;;;24.70;67.30;;;;;;5047467;28;20236;-88
2022/07/26 10:17:26;;;;;;;0.65;0.40;;;24.60;67.20;;;;;;5057435;28;20040;-89
2022/07/26 10:19:54;;;;;;;3.17;0.38;;;24.50;67.30;;;;;;5058048;28;20036;-89
2022/07/26 10:22:32;;;;;;;3.08;1.20;;;24.50;67.70;;;;;;5057518;28;20039;-89
2022/07/26 10:25:16;;;;;;;1.10;0.40;;;24.30;67.10;;;;;;5057588;28;20468;-90
2022/07/26 10:27:44;;;;;;;1.52;0.40;;;24.20;66.90;;;;;;5074833;28;20579;-89
2022/07/26 10:30:19;;;;;;;1.42;0.38;;;24.30;66.40;;;;;;5054501;28;20021;-89
2022/07/26 10:32:53;;;;;;;1.77;0.30;;;24.30;66.60;;;;;;5057361;28;20027;-88
2022/07/26 10:35:41;;;;;;;2.80;0.40;;;24.30;66.90;;;;;;5055483;28;20027;-88
2022/07/26 10:38:25;;;;;;;1.65;0.50;;;24.30;67.00;;;;;;5037380;28;20386;-86
2022/07/26 10:40:56;;;;;;;2.28;0.43;;;24.50;66.10;;;;;;5055110;28;20119;-88
2022/07/26 10:43:23;;;;;;;3.42;0.80;;;24.70;65.50;;;;;;5036565;28;20112;-88
2022/07/26 10:46:12;;;;;;;2.28;0.80;;;24.70;64.80;;;;;;5054951;28;20102;-87
2022/07/26 10:49:03;;;;;;;1.45;0.63;;;24.80;64.90;;;;;;5026439;28;20037;-89
2022/07/26 10:51:34;;;;;;;0.75;0.40;;;24.80;64.60;;;;;;5029367;28;20090;-89
2022/07/26 10:54:08;;;;;;;2.50;0.40;;;24.80;65.30;;;;;;5054794;28;20033;-88
2022/07/26 10:56:34;;;;;;;2.03;0.65;;;24.80;64.50;;;;;;5037032;28;20029;-89
2022/07/26 10:59:00;;;;;;;2.15;0.47;;;24.90;64.60;;;;;;5036883;28;20048;-89
2022/07/26 11:01:34;;;;;;;1.40;0.55;;;24.90;64.50;;;;;;5053973;28;20029;-89
2022/07/26 11:04:00;;;;;;;0.88;0.70;;;25.10;64.60;;;;;;5054255;28;20032;-89
2022/07/26 11:06:28;;;;;;;0.80;0.40;;;25.20;64.00;;;;;;5036311;28;20029;-89
2022/07/26 11:08:54;;;;;;;0.30;0.30;;;25.40;63.90;;;;;;5054649;28;20029;-90
2022/07/26 11:11:28;;;;;;;0.40;0.22;;;25.40;63.80;;;;;;5054059;28;20079;-88
2022/07/26 11:14:07;;;;;;;1.88;0.40;;;25.40;63.30;;;;;;5054579;28;20021;-89
2022/07/26 11:16:49;;;;;;;1.77;0.55;;;25.40;62.60;;;;;;5037071;28;20444;-88
2022/07/26 11:19:24;;;;;;;;;;;25.40;62.70;;;;;;5036632;28;20029;-90
2022/07/26 11:21:58;;;;;;;1.23;0.35;;;25.30;62.10;;;;;;5036731;28;20354;-90
2022/07/26 11:24:25;;;;;;;1.30;0.38;;;25.10;63.20;;;;;;5036161;28;20025;-89
2022/07/26 11:26:51;;;;;;;1.20;0.30;;;25.00;63.10;;;;;;5053711;28;20037;-90
2022/07/26 11:29:27;;;;;;;2.00;0.32;;;25.20;63.40;;;;;;5053983;28;20032;-89
2022/07/26 11:31:52;;;;;;;1.67;0.30;;;25.40;62.80;;;;;;5036484;28;20029;-89
2022/07/26 11:34:21;;;;;;;0.22;0.20;;;25.50;62.50;;;;;;5036171;28;20074;-89
2022/07/26 11:36:49;;;;;;;1.00;0.38;;;25.70;63.10;;;;;;5036362;28;20055;-89
2022/07/26 11:39:20;;;;;;;3.42;0.40;;;25.90;62.60;;;;;;5035961;28;20529;-90
2022/07/26 11:41:46;;;;;;;1.25;0.38;;;26.00;62.40;;;;;;5036044;28;20021;-88
2022/07/26 11:44:20;;;;;;;0.35;0.30;;;26.00;62.10;;;;;;5053702;28;20146;-90
2022/07/26 11:46:47;;;;;;;0.70;0.50;;;26.10;61.30;;;;;;5036392;28;20043;-89
2022/07/26 11:49:20;;;;;;;1.58;0.32;;;26.10;60.90;;;;;;5053416;28;20029;-89
2022/07/26 11:52:01;;;;;;;0.90;0.38;;;26.00;60.80;;;;;;5036425;28;20032;-89
2022/07/26 11:54:32;;;;;;;1.80;0.50;;;25.90;60.90;;;;;;5035937;28;20379;-89
2022/07/26 11:57:02;;;;;;;;;;;25.80;61.30;;;;;;5054326;28;20436;-89
2022/07/26 11:59:30;;;;;;;0.50;0.20;;;25.80;61.40;;;;;;5052752;28;19917;-88
2022/07/26 12:01:57;;;;;;;1.10;0.30;;;26.00;61.10;;;;;;5036937;28;20079;-89
2022/07/26 12:04:25;;;;;;;1.30;0.50;;;26.20;60.30;;;;;;5039898;28;20025;-89
2022/07/26 12:06:55;;;;;;;2.53;0.40;;;26.40;60.50;;;;;;5039638;28;20032;-91
2022/07/26 12:09:35;;;;;;;3.22;0.60;;;26.50;60.70;;;;;;5057475;28;20358;-89
2022/07/26 12:12:03;;;;;;;1.70;0.43;;;26.50;59.90;;;;;;5040322;28;20025;-89
2022/07/26 12:14:31;;;;;;;1.40;0.38;;;26.40;60.10;;;;;;5057355;28;20472;-88
2022/07/26 12:16:57;;;;;;;2.67;0.30;;;26.30;60.10;;;;;;5057275;28;20040;-89
2022/07/26 12:19:27;;;;;;;0.70;0.20;;;26.20;60.50;;;;;;5057185;28;20021;-89
2022/07/26 12:22:06;;;;;;;2.67;0.30;;;26.20;60.20;;;;;;5039352;28;20103;-89
2022/07/26 12:24:51;;;;;;;1.25;0.55;;;26.30;59.70;;;;;;5039352;28;20060;-90
2022/07/26 12:27:26;;;;;;;1.00;0.40;;;26.20;59.90;;;;;;5056815;28;20474;-89
2022/07/26 12:30:01;;;;;;;1.80;0.40;;;26.30;60.40;;;;;;5039760;28;20021;-89
2022/07/26 12:32:35;;;;;;;1.92;0.40;;;26.40;60.50;;;;;;5039332;28;20485;-88
2022/07/26 12:35:05;;;;;;;0.63;0.30;;;26.70;59.90;;;;;;5039536;28;20543;-87
2022/07/26 12:37:33;;;;;;;0.68;0.50;;;26.90;59.30;;;;;;5038845;28;20040;-87
2022/07/26 12:40:10;;;;;;;2.75;0.40;;;26.90;57.90;;;;;;5039341;28;20124;-88
2022/07/26 12:42:42;;;;;;;2.50;0.45;;;27.00;57.40;;;;;;5039308;28;20025;-89
2022/07/26 12:45:12;;;;;;;0.77;0.40;;;27.20;57.70;;;;;;5039753;28;20021;-89
2022/07/26 12:47:40;;;;;;;1.08;0.40;;;27.30;57.50;;;;;;5045242;28;20440;-88
2022/07/26 12:50:07;;;;;;;1.20;0.35;;;27.20;56.50;;;;;;5059666;28;20024;-88
2022/07/26 12:52:34;;;;;;;1.00;0.35;;;27.40;57.10;;;;;;5060809;28;20528;-90
2022/07/26 12:55:01;;;;;;;1.40;0.30;;;27.40;57.20;;;;;;5059233;28;20492;-90